Time;durP1;ratioP1;P1;durP2;ratioP2;P2;SDS_P1;SDS_P2;PMS_P1;PMS_P2;Temp;Humidity;BMP_temperature;BMP_pressure;BME280_temperature;BME280_humidity;BME280_pressure;Samples;Min_cycle;Max_cycle;Signal;HPM_P1;HPM_P2
2023/02/07 00:02:01;;;;;;;;;;;;;;;8.55;43.15;103264.59;4941408;28;127024;-68
2023/02/07 00:04:27;;;;;;;;;;;;;;;8.53;43.19;103259.41;4942901;28;128980;-67
2023/02/07 00:06:53;;;;;;;;;;;;;;;8.52;43.40;103256.91;4941627;28;127719;-67
2023/02/07 00:09:18;;;;;;;;;;;;;;;8.51;43.24;103255.25;4941637;28;116515;-67
2023/02/07 00:11:44;;;;;;;;;;;;;;;8.50;42.88;103259.78;4941826;28;128186;-68
2023/02/07 00:14:11;;;;;;;;;;;;;;;8.48;42.90;103266.34;4959202;28;127356;-68
2023/02/07 00:16:37;;;;;;;;;;;;;;;8.48;42.61;103269.88;4959162;28;100989;-67
2023/02/07 00:19:03;;;;;;;;;;;;;;;8.47;42.86;103270.06;4942342;28;97893;-67
2023/02/07 00:21:29;;;;;;;;;;;;;;;8.46;43.22;103281.84;4958819;28;119819;-67
2023/02/07 00:23:55;;;;;;;;;;;;;;;8.44;43.08;103275.81;4924099;28;99861;-68
2023/02/07 00:26:22;;;;;;;;;;;;;;;8.43;42.79;103274.16;4938898;28;128271;-67
2023/02/07 00:28:49;;;;;;;;;;;;;;;8.42;43.47;103273.31;4926974;28;98268;-68
2023/02/07 00:31:20;;;;;;;;;;;;;;;8.42;43.45;103277.88;4957999;28;98165;-68
2023/02/07 00:33:47;;;;;;;;;;;;;;;8.40;43.05;103275.34;4941811;28;120774;-68
2023/02/07 00:36:14;;;;;;;;;;;;;;;8.39;43.27;103275.53;4930031;28;115289;-67
2023/02/07 00:38:41;;;;;;;;;;;;;;;8.38;43.08;103276.56;4941710;28;102568;-67
2023/02/07 00:41:06;;;;;;;;;;;;;;;8.37;42.91;103278.44;4941254;28;98134;-67
2023/02/07 00:43:32;;;;;;;;;;;;;;;8.34;43.18;103276.06;4941072;28;128730;-67
2023/02/07 00:45:59;;;;;;;;;;;;;;;8.34;43.13;103268.00;4924778;28;126067;-67
2023/02/07 00:48:29;;;;;;;;;;;;;;;8.31;43.35;103261.13;4939198;28;97960;-67
2023/02/07 00:50:55;;;;;;;;;;;;;;;8.31;43.09;103265.69;4959475;28;98695;-67
2023/02/07 00:53:21;;;;;;;;;;;;;;;8.31;42.71;103276.44;4956531;28;115325;-67
2023/02/07 00:55:47;;;;;;;;;;;;;;;8.29;42.98;103278.47;4920534;28;123406;-68
2023/02/07 00:58:13;;;;;;;;;;;;;;;8.28;43.12;103283.00;4942039;28;115636;-68
2023/02/07 01:00:38;;;;;;;;;;;;;;;8.25;42.79;103277.16;4936469;28;128518;-67
2023/02/07 01:03:04;;;;;;;;;;;;;;;8.25;42.82;103283.38;4956423;28;126204;-67
2023/02/07 01:05:30;;;;;;;;;;;;;;;8.25;42.96;103290.59;4940988;28;98981;-67
2023/02/07 01:07:56;;;;;;;;;;;;;;;8.23;42.84;103287.28;4925557;28;116319;-66
2023/02/07 01:10:23;;;;;;;;;;;;;;;8.22;43.10;103280.22;4939556;28;127395;-67
2023/02/07 01:12:49;;;;;;;;;;;;;;;8.21;42.86;103273.16;4956420;28;98395;-67
2023/02/07 01:15:15;;;;;;;;;;;;;;;8.20;42.73;103275.03;4957245;28;100485;-67
2023/02/07 01:17:41;;;;;;;;;;;;;;;8.18;43.41;103271.69;4922837;28;118397;-67
2023/02/07 01:20:08;;;;;;;;;;;;;;;8.18;42.60;103277.06;4907734;28;128619;-67
2023/02/07 01:22:35;;;;;;;;;;;;;;;8.17;43.43;103279.94;4958978;28;112065;-66
2023/02/07 01:25:01;;;;;;;;;;;;;;;8.16;42.84;103286.31;4926552;28;98274;-67
2023/02/07 01:27:27;;;;;;;;;;;;;;;8.15;43.37;103287.34;4939487;28;118926;-67
2023/02/07 01:29:53;;;;;;;;;;;;;;;8.13;43.27;103271.41;4940884;28;121707;-67
2023/02/07 01:32:19;;;;;;;;;;;;;;;8.13;43.03;103266.03;4942809;28;98337;-67
2023/02/07 01:34:44;;;;;;;;;;;;;;;8.11;42.70;103258.16;4938689;28;125413;-67
2023/02/07 01:37:10;;;;;;;;;;;;;;;8.10;43.07;103258.34;4939708;28;118544;-67
2023/02/07 01:39:36;;;;;;;;;;;;;;;8.08;42.83;103245.09;4943201;28;128438;-67
2023/02/07 01:42:02;;;;;;;;;;;;;;;8.10;42.86;103253.81;4959282;28;127961;-67
2023/02/07 01:44:28;;;;;;;;;;;;;;;8.14;43.06;103246.22;4943028;28;126077;-67
2023/02/07 01:46:55;;;;;;;;;;;;;;;8.21;43.00;103238.22;4941180;28;98018;-67
2023/02/07 01:49:22;;;;;;;;;;;;;;;8.26;42.84;103241.22;4942672;28;112850;-67
2023/02/07 01:51:50;;;;;;;;;;;;;;;8.29;43.28;103244.38;4938365;28;117418;-67
2023/02/07 01:54:16;;;;;;;;;;;;;;;8.33;43.28;103243.00;4955524;28;124532;-67
2023/02/07 01:56:45;;;;;;;;;;;;;;;8.34;43.26;103236.59;4944950;28;116995;-67
2023/02/07 01:59:11;;;;;;;;;;;;;;;8.38;42.61;103230.88;4939356;28;102265;-67
2023/02/07 02:01:37;;;;;;;;;;;;;;;8.38;43.09;103229.03;4959977;28;128394;-67
2023/02/07 02:04:03;;;;;;;;;;;;;;;8.39;43.08;103224.47;4955147;28;128757;-67
2023/02/07 02:06:30;;;;;;;;;;;;;;;8.39;43.10;103235.22;4959668;28;116137;-67
2023/02/07 02:08:57;;;;;;;;;;;;;;;8.40;43.21;103244.94;4927598;28;98658;-68
2023/02/07 02:11:43;;;;;;;;;;;;;;;8.39;43.41;103246.81;4942704;28;99867;-67
2023/02/07 02:14:18;;;;;;;;;;;;;;;8.39;42.81;103246.81;4957850;28;110003;-67
2023/02/07 02:17:00;;;;;;;;;;;;;;;8.39;43.05;103241.44;4960155;28;98090;-67
2023/02/07 02:19:49;;;;;;;;;;;;;;;8.36;43.11;103237.22;4962401;28;118934;-67
2023/02/07 02:22:55;;;;;;;;;;;;;;;8.37;42.72;103238.09;4960710;28;98226;-67
2023/02/07 02:25:56;;;;;;;;;;;;;;;8.35;43.46;103234.72;4958383;28;97932;-67
2023/02/07 02:28:43;;;;;;;;;;;;;;;8.34;43.10;103241.97;4961375;28;98741;-66
2023/02/07 02:31:41;;;;;;;;;;;;;;;8.32;42.99;103241.28;4960466;28;121202;-67
2023/02/07 02:34:20;;;;;;;;;;;;;;;8.31;42.83;103249.56;4920780;28;98661;-67
2023/02/07 02:36:55;;;;;;;;;;;;;;;8.29;43.30;103239.00;4943497;28;98541;-67
2023/02/07 02:39:31;;;;;;;;;;;;;;;8.28;43.14;103250.75;4961090;28;97818;-67
2023/02/07 02:42:26;;;;;;;;;;;;;;;8.27;43.00;103257.16;4942405;28;120233;-67
2023/02/07 02:44:55;;;;;;;;;;;;;;;8.25;42.86;103244.91;4944552;28;98499;-67
2023/02/07 02:47:21;;;;;;;;;;;;;;;8.24;43.13;103248.63;4940639;28;124489;-66
2023/02/07 02:49:47;;;;;;;;;;;;;;;8.23;43.06;103242.41;4951984;28;115809;-67
2023/02/07 02:52:13;;;;;;;;;;;;;;;8.21;43.34;103241.75;4961033;28;126484;-67
2023/02/07 02:54:39;;;;;;;;;;;;;;;8.19;43.09;103238.44;4959535;28;128284;-67
2023/02/07 02:57:27;;;;;;;;;;;;;;;8.19;43.13;103242.97;4944383;28;126900;-68
2023/02/07 03:00:12;;;;;;;;;;;;;;;8.18;42.87;103234.09;4959774;28;97848;-67
2023/02/07 03:03:09;;;;;;;;;;;;;;;8.16;42.79;103235.28;4942077;28;127923;-67
2023/02/07 03:06:03;;;;;;;;;;;;;;;8.15;42.83;103225.56;4958792;28;98224;-67
2023/02/07 03:08:41;;;;;;;;;;;;;;;8.11;42.89;103223.22;4957745;28;100459;-68
2023/02/07 03:11:13;;;;;;;;;;;;;;;8.12;42.86;103232.13;4939697;28;98346;-68
2023/02/07 03:13:59;;;;;;;;;;;;;;;8.10;43.33;103229.63;4957833;28;98513;-67
2023/02/07 03:16:28;;;;;;;;;;;;;;;8.08;42.95;103225.44;4943652;28;98089;-67
2023/02/07 03:19:05;;;;;;;;;;;;;;;8.07;43.23;103227.31;4959394;28;98112;-68
2023/02/07 03:21:45;;;;;;;;;;;;;;;8.06;42.79;103227.50;4959072;28;104045;-67
2023/02/07 03:24:15;;;;;;;;;;;;;;;8.03;42.73;103212.56;4939832;28;127721;-67
2023/02/07 03:26:41;;;;;;;;;;;;;;;8.02;43.04;103213.59;4940959;28;99952;-67
2023/02/07 03:29:07;;;;;;;;;;;;;;;8.02;42.87;103220.81;4944180;28;127649;-68
2023/02/07 03:31:33;;;;;;;;;;;;;;;7.99;43.25;103227.38;4930845;28;117822;-68
2023/02/07 03:34:07;;;;;;;;;;;;;;;7.98;42.85;103228.41;4942704;28;127815;-67
2023/02/07 03:36:37;;;;;;;;;;;;;;;7.97;43.15;103229.41;4924587;28;99611;-67
2023/02/07 03:39:03;;;;;;;;;;;;;;;7.97;43.10;103232.09;4959676;28;117170;-68
2023/02/07 03:41:36;;;;;;;;;;;;;;;7.95;43.04;103212.66;4942053;28;116781;-67
2023/02/07 03:44:05;;;;;;;;;;;;;;;7.94;43.13;103213.69;4942206;28;124021;-68
2023/02/07 03:46:35;;;;;;;;;;;;;;;7.94;43.19;103215.50;4958645;28;99349;-68
2023/02/07 03:49:01;;;;;;;;;;;;;;;7.93;43.10;103211.16;4940555;28;98091;-68
2023/02/07 03:51:27;;;;;;;;;;;;;;;7.91;42.86;103222.09;4960856;28;98368;-67
2023/02/07 03:53:53;;;;;;;;;;;;;;;7.90;43.02;103231.19;4934936;28;126905;-67
2023/02/07 03:56:19;;;;;;;;;;;;;;;7.90;43.21;103230.31;4940172;28;127909;-68
2023/02/07 03:58:45;;;;;;;;;;;;;;;7.88;42.88;103233.19;4924995;28;127546;-67
2023/02/07 04:01:11;;;;;;;;;;;;;;;7.85;43.10;103229.03;4941456;28;118884;-67
2023/02/07 04:03:37;;;;;;;;;;;;;;;7.85;42.73;103225.50;4941181;28;127117;-67
2023/02/07 04:06:03;;;;;;;;;;;;;;;7.84;42.59;103230.03;4956555;28;128040;-67
2023/02/07 04:08:29;;;;;;;;;;;;;;;7.83;42.73;103238.28;4937468;28;114871;-69
2023/02/07 04:10:59;;;;;;;;;;;;;;;7.81;42.83;103237.63;4941698;28;117884;-66
2023/02/07 04:13:25;;;;;;;;;;;;;;;7.81;42.70;103248.38;4943629;28;98270;-66
2023/02/07 04:15:50;;;;;;;;;;;;;;;7.80;42.96;103234.09;4941342;28;128646;-67
2023/02/07 04:18:16;;;;;;;;;;;;;;;7.76;42.64;103230.13;4925861;28;127146;-67
2023/02/07 04:20:42;;;;;;;;;;;;;;;7.77;43.34;103222.91;4941663;28;98043;-66
2023/02/07 04:23:08;;;;;;;;;;;;;;;7.75;43.14;103225.78;4956827;28;125775;-66
2023/02/07 04:25:34;;;;;;;;;;;;;;;7.74;42.63;103234.84;4940281;28;127323;-67
2023/02/07 04:28:00;;;;;;;;;;;;;;;7.74;42.89;103234.00;4941001;28;126869;-67
2023/02/07 04:30:26;;;;;;;;;;;;;;;7.72;42.87;103233.34;4942218;28;116734;-67
2023/02/07 04:32:52;;;;;;;;;;;;;;;7.71;42.61;103226.31;4938544;28;128039;-68
2023/02/07 04:35:18;;;;;;;;;;;;;;;7.71;42.76;103239.75;4958595;28;127325;-68
2023/02/07 04:37:44;;;;;;;;;;;;;;;7.69;42.46;103233.72;4935371;28;129071;-67
2023/02/07 04:40:10;;;;;;;;;;;;;;;7.69;42.93;103236.41;4938002;28;118368;-67
2023/02/07 04:42:36;;;;;;;;;;;;;;;7.67;43.04;103244.66;4956470;28;117516;-67
2023/02/07 04:45:02;;;;;;;;;;;;;;;7.64;43.26;103242.31;4929873;28;125003;-67
2023/02/07 04:47:27;;;;;;;;;;;;;;;7.65;42.96;103252.03;4920663;28;98428;-67
2023/02/07 04:49:53;;;;;;;;;;;;;;;7.64;42.90;103247.69;4941782;28;117668;-67
2023/02/07 04:52:19;;;;;;;;;;;;;;;7.63;42.90;103246.84;4926627;28;128047;-68
2023/02/07 04:54:45;;;;;;;;;;;;;;;7.60;42.85;103252.56;4925357;28;99456;-67
2023/02/07 04:57:11;;;;;;;;;;;;;;;7.59;43.04;103253.59;4941214;28;126894;-67
2023/02/07 04:59:37;;;;;;;;;;;;;;;7.59;42.60;103255.44;4958504;28;111205;-67
2023/02/07 05:02:03;;;;;;;;;;;;;;;7.57;43.08;103252.94;4940350;28;128092;-67
2023/02/07 05:04:29;;;;;;;;;;;;;;;7.56;42.77;103239.69;4956816;28;125840;-67
2023/02/07 05:06:55;;;;;;;;;;;;;;;7.55;42.82;103238.03;4957634;28;127318;-67
2023/02/07 05:09:21;;;;;;;;;;;;;;;7.53;42.88;103248.94;4938830;28;117357;-67
2023/02/07 05:11:47;;;;;;;;;;;;;;;7.52;43.15;103243.75;4935545;28;126202;-67
2023/02/07 05:14:13;;;;;;;;;;;;;;;7.51;43.02;103244.78;4941836;28;127163;-67
2023/02/07 05:16:38;;;;;;;;;;;;;;;7.50;42.93;103249.28;4926291;28;129696;-66
2023/02/07 05:19:04;;;;;;;;;;;;;;;7.49;42.93;103253.00;4919728;28;118325;-67
2023/02/07 05:21:30;;;;;;;;;;;;;;;7.48;42.84;103256.69;4934950;28;128856;-67
2023/02/07 05:23:56;;;;;;;;;;;;;;;7.46;42.99;103258.72;4929538;28;98412;-67
2023/02/07 05:26:22;;;;;;;;;;;;;;;7.45;42.71;103259.72;4929048;28;98109;-67
2023/02/07 05:28:48;;;;;;;;;;;;;;;7.44;42.92;103259.91;4925244;28;118109;-67
2023/02/07 05:31:14;;;;;;;;;;;;;;;7.42;42.76;103262.78;4906916;28;127506;-67
2023/02/07 05:33:40;;;;;;;;;;;;;;;7.41;42.86;103268.31;4929581;28;98270;-67
2023/02/07 05:36:06;;;;;;;;;;;;;;;7.40;42.86;103278.22;4941183;28;98838;-67
2023/02/07 05:38:32;;;;;;;;;;;;;;;7.39;42.65;103276.56;4907017;28;98067;-67
2023/02/07 05:40:58;;;;;;;;;;;;;;;7.37;42.49;103276.72;4922944;28;127953;-68
2023/02/07 05:43:24;;;;;;;;;;;;;;;7.37;42.84;103278.59;4925488;28;98332;-67
2023/02/07 05:45:50;;;;;;;;;;;;;;;7.35;42.78;103273.41;4921794;28;127984;-68
2023/02/07 05:48:16;;;;;;;;;;;;;;;7.37;42.77;103278.59;4937074;28;106120;-67
2023/02/07 05:50:42;;;;;;;;;;;;;;;7.35;42.86;103272.56;4918870;28;127727;-67
2023/02/07 05:53:08;;;;;;;;;;;;;;;7.34;42.84;103271.72;4936555;28;128382;-67
2023/02/07 05:55:34;;;;;;;;;;;;;;;7.34;42.84;103269.03;4922750;28;125727;-67
2023/02/07 05:58:00;;;;;;;;;;;;;;;7.34;42.88;103269.03;4906319;28;98433;-67
2023/02/07 06:00:26;;;;;;;;;;;;;;;7.34;43.17;103263.66;4924420;28;127939;-67
2023/02/07 06:02:51;;;;;;;;;;;;;;;7.34;42.91;103263.66;4920747;28;127576;-67
2023/02/07 06:05:21;;;;;;;;;;;;;;;7.34;42.71;103255.59;4909359;28;100036;-67
2023/02/07 06:07:49;;;;;;;;;;;;;;;7.36;43.07;103260.81;4942097;28;99760;-67
2023/02/07 06:10:14;;;;;;;;;;;;;;;7.36;42.90;103260.81;4923426;28;121077;-67
2023/02/07 06:12:40;;;;;;;;;;;;;;;7.35;42.75;103262.66;4941745;28;129484;-68
2023/02/07 06:15:07;;;;;;;;;;;;;;;7.37;42.73;103262.47;4954515;28;118895;-67
2023/02/07 06:17:33;;;;;;;;;;;;;;;7.36;42.74;103264.31;4925591;28;98145;-67
2023/02/07 06:19:59;;;;;;;;;;;;;;;7.37;43.02;103267.84;4958372;28;112530;-67
2023/02/07 06:22:25;;;;;;;;;;;;;;;7.36;42.81;103258.97;4956778;28;118298;-67
2023/02/07 06:24:50;;;;;;;;;;;;;;;7.37;42.88;103265.16;4958471;28;116284;-67
2023/02/07 06:27:16;;;;;;;;;;;;;;;7.37;42.65;103259.78;4927765;28;117873;-67
2023/02/07 06:29:42;;;;;;;;;;;;;;;7.37;42.69;103262.47;4962802;28;98503;-67
2023/02/07 06:32:08;;;;;;;;;;;;;;;7.37;42.68;103266.00;4943409;28;126802;-67
2023/02/07 06:34:34;;;;;;;;;;;;;;;7.38;42.72;103266.81;4944252;28;127198;-67
2023/02/07 06:37:00;;;;;;;;;;;;;;;7.38;42.49;103270.34;4943386;28;120868;-67
2023/02/07 06:39:26;;;;;;;;;;;;;;;7.39;42.83;103273.88;4960298;28;128343;-67
2023/02/07 06:41:52;;;;;;;;;;;;;;;7.40;42.74;103286.28;4960437;28;127788;-67
2023/02/07 06:44:18;;;;;;;;;;;;;;;7.41;42.56;103285.25;4942620;28;127791;-67
2023/02/07 06:46:44;;;;;;;;;;;;;;;7.41;42.80;103279.06;4941271;28;98098;-67
2023/02/07 06:49:10;;;;;;;;;;;;;;;7.44;42.61;103289.44;4937047;28;128000;-67
2023/02/07 06:51:36;;;;;;;;;;;;;;;7.45;42.68;103291.09;4942588;28;126269;-67
2023/02/07 06:54:06;;;;;;;;;;;;;;;7.47;42.68;103303.34;4958288;28;126487;-67
2023/02/07 06:56:32;;;;;;;;;;;;;;;7.49;42.92;103301.31;4944874;28;98147;-67
2023/02/07 06:58:58;;;;;;;;;;;;;;;7.51;42.87;103301.97;4944419;28;128722;-67
2023/02/07 07:01:24;;;;;;;;;;;;;;;7.53;42.62;103291.88;4943307;28;116328;-68
2023/02/07 07:03:50;;;;;;;;;;;;;;;7.56;42.27;103298.75;4926816;28;104661;-67
2023/02/07 07:06:16;;;;;;;;;;;;;;;7.57;42.28;103298.56;4942514;28;98050;-67
2023/02/07 07:08:42;;;;;;;;;;;;;;;7.60;42.62;103303.59;4958382;28;125937;-67
2023/02/07 07:11:08;;;;;;;;;;;;;;;7.63;42.55;103310.47;4926227;28;113726;-67
2023/02/07 07:13:34;;;;;;;;;;;;;;;7.67;42.68;103305.56;4924111;28;127920;-67
2023/02/07 07:16:00;;;;;;;;;;;;;;;7.70;42.09;103310.56;4943578;28;114141;-67
2023/02/07 07:18:26;;;;;;;;;;;;;;;7.76;42.31;103315.22;4943820;28;98301;-67
2023/02/07 07:20:53;;;;;;;;;;;;;;;7.81;42.35;103315.50;4926432;28;127362;-67
2023/02/07 07:23:19;;;;;;;;;;;;;;;7.86;42.30;103310.44;4941369;28;126072;-67
2023/02/07 07:25:45;;;;;;;;;;;;;;;7.94;42.44;103312.19;4957773;28;117561;-67
2023/02/07 07:28:11;;;;;;;;;;;;;;;8.01;42.29;103307.78;4959353;28;126654;-67
2023/02/07 07:30:37;;;;;;;;;;;;;;;8.06;42.40;103308.94;4941548;28;129073;-67
2023/02/07 07:33:03;;;;;;;;;;;;;;;8.16;42.53;103313.19;4959092;28;98248;-67
2023/02/07 07:35:29;;;;;;;;;;;;;;;8.22;41.92;103307.94;4943184;28;117114;-67
2023/02/07 07:37:55;;;;;;;;;;;;;;;8.32;41.89;103313.03;4954628;28;98787;-67
2023/02/07 07:40:21;;;;;;;;;;;;;;;8.37;42.21;103305.31;4927458;28;129481;-67
2023/02/07 07:42:47;;;;;;;;;;;;;;;8.45;41.92;103305.22;4922487;28;127372;-67
2023/02/07 07:45:12;;;;;;;;;;;;;;;8.56;41.49;103303.91;4930416;28;99081;-67
2023/02/07 07:47:39;;;;;;;;;;;;;;;8.68;42.29;103305.09;4923512;28;127188;-67
2023/02/07 07:50:06;;;;;;;;;;;;;;;8.81;41.82;103304.47;4957226;28;127471;-67
2023/02/07 07:52:33;;;;;;;;;;;;;;;8.99;41.61;103309.44;4959379;28;98213;-67
2023/02/07 07:54:59;;;;;;;;;;;;;;;9.18;41.87;103300.78;4961441;28;98082;-68
2023/02/07 07:57:27;;;;;;;;;;;;;;;9.34;41.62;103314.00;4959553;28;119995;-67
2023/02/07 07:59:53;;;;;;;;;;;;;;;9.52;41.38;103313.59;4925798;28;98358;-67
2023/02/07 08:02:19;;;;;;;;;;;;;;;9.77;40.69;103305.13;4959023;28;99100;-67
2023/02/07 08:04:45;;;;;;;;;;;;;;;10.02;41.39;103311.78;4942135;28;98126;-67
2023/02/07 08:07:11;;;;;;;;;;;;;;;10.34;40.70;103306.84;4923943;28;127084;-67
2023/02/07 08:09:37;;;;;;;;;;;;;;;10.79;40.92;103315.41;4926318;28;111179;-67
2023/02/07 08:12:03;;;;;;;;;;;;;;;11.22;40.42;103299.78;4940513;28;98019;-67
2023/02/07 08:14:30;;;;;;;;;;;;;;;11.60;39.98;103296.56;4925059;28;117240;-67
2023/02/07 08:16:55;;;;;;;;;;;;;;;12.09;40.00;103286.41;4940759;28;98560;-68
2023/02/07 08:19:22;;;;;;;;;;;;;;;12.65;39.71;103277.75;4939229;28;127347;-68
2023/02/07 08:21:48;;;;;;;;;;;;;;;13.21;39.50;103277.94;4937675;28;127815;-68
2023/02/07 08:24:14;;;;;;;;;;;;;;;13.69;39.49;103280.13;4958394;28;107687;-67
2023/02/07 08:26:40;;;;;;;;;;;;;;;14.10;39.26;103280.63;4941263;28;124083;-68
2023/02/07 08:29:06;;;;;;;;;;;;;;;14.50;38.83;103283.78;4942019;28;126655;-68
2023/02/07 08:31:32;;;;;;;;;;;;;;;14.90;38.99;103286.88;4942170;28;127649;-68
2023/02/07 08:33:58;;;;;;;;;;;;;;;15.31;39.18;103284.44;4958515;28;113780;-67
2023/02/07 08:36:24;;;;;;;;;;;;;;;15.75;38.85;103298.63;4926250;28;98858;-68
2023/02/07 08:38:50;;;;;;;;;;;;;;;16.17;38.95;103288.50;4940433;28;127533;-68
2023/02/07 08:41:16;;;;;;;;;;;;;;;16.60;38.97;103298.16;4943373;28;99671;-68
2023/02/07 08:43:42;;;;;;;;;;;;;;;17.02;38.82;103290.63;4940063;28;110083;-66
2023/02/07 08:46:08;;;;;;;;;;;;;;;17.46;38.75;103287.31;4925538;28;111833;-67
2023/02/07 08:48:34;;;;;;;;;;;;;;;17.86;38.87;103288.03;4938711;28;128220;-68
2023/02/07 08:51:06;;;;;;;;;;;;;;;18.28;38.78;103279.38;4929089;28;99495;-67
2023/02/07 08:53:32;;;;;;;;;;;;;;;18.71;38.70;103285.97;4926837;28;98115;-67
2023/02/07 08:55:58;;;;;;;;;;;;;;;19.10;38.72;103277.69;4941807;28;99882;-67
2023/02/07 08:58:24;;;;;;;;;;;;;;;19.47;38.92;103283.22;4939981;28;126626;-67
2023/02/07 09:00:50;;;;;;;;;;;;;;;19.86;38.74;103286.59;4929042;28;104199;-67
2023/02/07 09:03:16;;;;;;;;;;;;;;;20.28;38.74;103284.94;4941974;28;117922;-67
2023/02/07 09:05:42;;;;;;;;;;;;;;;20.69;38.91;103290.63;4941775;28;128692;-67
2023/02/07 09:08:08;;;;;;;;;;;;;;;21.04;38.93;103289.94;4940310;28;98856;-69
2023/02/07 09:10:34;;;;;;;;;;;;;;;21.40;39.08;103285.34;4940122;28;116670;-67
2023/02/07 09:13:00;;;;;;;;;;;;;;;21.77;39.01;103281.50;4924683;28;117272;-67
2023/02/07 09:15:26;;;;;;;;;;;;;;;22.13;39.01;103290.56;4941332;28;128888;-70
2023/02/07 09:17:52;;;;;;;;;;;;;;;22.52;39.02;103287.97;4957544;28;128156;-70
2023/02/07 09:20:18;;;;;;;;;;;;;;;22.90;39.15;103290.25;4921782;28;119329;-68
2023/02/07 09:25:28;;;;;;;;;;;;;;;23.54;39.10;103292.06;4953511;28;98490;-68
2023/02/07 09:27:54;;;;;;;;;;;;;;;23.71;39.15;103297.97;4926797;28;126487;-68
2023/02/07 09:30:20;;;;;;;;;;;;;;;23.85;39.37;103286.28;4923475;28;98032;-67
2023/02/07 09:32:46;;;;;;;;;;;;;;;23.97;39.36;103278.44;4940502;28;116658;-70
2023/02/07 09:35:12;;;;;;;;;;;;;;;24.11;39.34;103287.69;4923804;28;127412;-69
2023/02/07 09:37:39;;;;;;;;;;;;;;;24.27;39.39;103285.56;4925812;28;111736;-68
2023/02/07 09:40:05;;;;;;;;;;;;;;;24.42;39.26;103295.63;4936222;28;98206;-68
2023/02/07 09:42:42;;;;;;;;;;;;;;;24.54;39.49;103281.44;4920401;28;114083;-67
2023/02/07 09:45:22;;;;;;;;;;;;;;;24.62;39.24;103283.53;4940589;28;126950;-67
2023/02/07 09:47:49;;;;;;;;;;;;;;;24.64;39.36;103276.63;4924285;28;97954;-68
2023/02/07 09:50:21;;;;;;;;;;;;;;;24.62;39.61;103276.06;4941429;28;98521;-70
2023/02/07 09:53:20;;;;;;;;;;;;;;;24.55;39.65;103281.13;4925027;28;109876;-71
2023/02/07 09:55:49;;;;;;;;;;;;;;;24.46;39.60;103280.97;4953035;28;98643;-69
2023/02/07 09:58:36;;;;;;;;;;;;;;;24.36;39.80;103282.97;4925668;28;98898;-71
2023/02/07 10:01:20;;;;;;;;;;;;;;;24.22;40.23;103278.19;4940344;28;120389;-70
2023/02/07 10:04:17;;;;;;;;;;;;;;;24.06;40.01;103278.66;4942846;28;106166;-69
2023/02/07 10:06:44;;;;;;;;;;;;;;;23.82;40.39;103270.38;4941203;28;99985;-67
2023/02/07 10:09:14;;;;;;;;;;;;;;;23.59;40.09;103269.97;4945130;28;98349;-67
2023/02/07 10:11:57;;;;;;;;;;;;;;;23.38;40.21;103269.31;4943645;28;107778;-69
2023/02/07 10:14:41;;;;;;;;;;;;;;;23.10;40.24;103272.84;4927586;28;98168;-68
2023/02/07 10:17:52;;;;;;;;;;;;;;;22.82;40.56;103277.09;4945566;28;98982;-70
2023/02/07 10:20:38;;;;;;;;;;;;;;;22.46;40.87;103271.78;4961316;28;98894;-67
2023/02/07 10:23:24;;;;;;;;;;;;;;;22.14;40.60;103275.72;4928601;28;99203;-69
2023/02/07 10:26:19;;;;;;;;;;;;;;;21.86;40.98;103285.34;4943300;28;98367;-69
2023/02/07 10:29:09;;;;;;;;;;;;;;;21.54;41.00;103283.72;4937284;28;98052;-70
2023/02/07 10:31:41;;;;;;;;;;;;;;;21.29;40.97;103291.88;4930920;28;98085;-67
2023/02/07 10:34:18;;;;;;;;;;;;;;;21.05;41.07;103284.16;4942977;28;105809;-66
2023/02/07 10:36:49;;;;;;;;;;;;;;;20.83;41.14;103283.56;4926747;28;97943;-69
2023/02/07 10:39:17;;;;;;;;;;;;;;;20.61;41.05;103282.94;4906409;28;98124;-69
2023/02/07 10:41:43;;;;;;;;;;;;;;;20.41;41.16;103284.47;4942962;28;97946;-67
2023/02/07 10:44:20;;;;;;;;;;;;;;;20.21;41.16;103274.22;4943183;28;120294;-67
2023/02/07 10:46:49;;;;;;;;;;;;;;;20.03;41.22;103275.47;4958128;28;98224;-69
2023/02/07 10:49:20;;;;;;;;;;;;;;;19.83;41.19;103273.41;4924005;28;127917;-67
2023/02/07 10:51:46;;;;;;;;;;;;;;;19.68;41.34;103273.31;4926564;28;98457;-66
2023/02/07 10:54:19;;;;;;;;;;;;;;;19.53;41.16;103270.41;4956765;28;100590;-66
2023/02/07 10:56:49;;;;;;;;;;;;;;;19.40;41.24;103266.19;4937418;28;97993;-68
2023/02/07 10:59:35;;;;;;;;;;;;;;;19.27;41.08;103272.91;4942921;28;98755;-69
2023/02/07 11:02:01;;;;;;;;;;;;;;;19.17;41.31;103274.72;4938979;28;98506;-66
2023/02/07 11:04:34;;;;;;;;;;;;;;;19.10;41.06;103269.47;4942657;28;98712;-68
2023/02/07 11:07:01;;;;;;;;;;;;;;;19.06;41.12;103268.31;4924647;28;98151;-66
2023/02/07 11:09:27;;;;;;;;;;;;;;;19.02;41.23;103258.97;4929609;28;99331;-67
2023/02/07 11:11:53;;;;;;;;;;;;;;;18.99;40.81;103254.88;4925876;28;98238;-70
2023/02/07 11:14:25;;;;;;;;;;;;;;;18.97;40.97;103248.81;4926549;28;99083;-69
2023/02/07 11:16:55;;;;;;;;;;;;;;;18.97;40.94;103248.00;4926659;28;98636;-69
2023/02/07 11:19:23;;;;;;;;;;;;;;;18.98;40.85;103244.19;4925172;28;102518;-67
2023/02/07 11:21:50;;;;;;;;;;;;;;;18.98;40.99;103246.91;4943256;28;98292;-66
2023/02/07 11:24:30;;;;;;;;;;;;;;;18.97;40.84;103229.69;4942833;28;97971;-66
2023/02/07 11:27:01;;;;;;;;;;;;;;;18.95;41.06;103240.06;4941406;28;97964;-66
2023/02/07 11:29:27;;;;;;;;;;;;;;;18.93;40.94;103238.66;4942936;28;99742;-67
2023/02/07 11:31:54;;;;;;;;;;;;;;;18.87;40.99;103241.34;4925035;28;108879;-69
2023/02/07 11:34:28;;;;;;;;;;;;;;;18.85;41.21;103242.69;4941437;28;98271;-69
2023/02/07 11:36:56;;;;;;;;;;;;;;;18.81;41.06;103234.19;4943492;28;114113;-66
2023/02/07 11:39:22;;;;;;;;;;;;;;;18.78;40.93;103231.94;4941444;28;118363;-67
2023/02/07 11:41:54;;;;;;;;;;;;;;;18.76;40.92;103238.78;4943052;28;99404;-67
2023/02/07 11:44:23;;;;;;;;;;;;;;;18.70;40.93;103237.00;4932049;28;98258;-68
2023/02/07 11:46:49;;;;;;;;;;;;;;;18.61;41.06;103242.09;4924781;28;98234;-66
2023/02/07 11:49:23;;;;;;;;;;;;;;;18.48;40.98;103240.59;4942704;28;98316;-67
2023/02/07 11:51:57;;;;;;;;;;;;;;;18.28;41.18;103230.25;4942387;28;100677;-69
2023/02/07 11:54:22;;;;;;;;;;;;;;;18.02;41.23;103231.78;4941934;28;113627;-69
2023/02/07 11:56:52;;;;;;;;;;;;;;;17.76;41.60;103227.00;4923378;28;116953;-68
2023/02/07 11:59:20;;;;;;;;;;;;;;;17.52;41.58;103229.06;4926573;28;97967;-69
2023/02/07 12:01:54;;;;;;;;;;;;;;;17.30;41.59;103232.53;4942113;28;98579;-66
2023/02/07 12:04:34;;;;;;;;;;;;;;;17.09;41.58;103227.78;4926013;28;121188;-68
2023/02/07 12:07:05;;;;;;;;;;;;;;;16.87;41.55;103223.03;4937839;28;98129;-66
2023/02/07 12:09:41;;;;;;;;;;;;;;;16.70;41.75;103230.28;4937214;28;126078;-67
2023/02/07 12:12:15;;;;;;;;;;;;;;;16.53;41.83;103237.56;4957183;28;100234;-66
2023/02/07 12:15:05;;;;;;;;;;;;;;;16.32;41.90;103220.81;4931809;28;120940;-66
2023/02/07 12:17:40;;;;;;;;;;;;;;;16.13;42.06;103222.84;4957228;28;107664;-68
2023/02/07 12:20:27;;;;;;;;;;;;;;;15.95;41.93;103214.81;4926649;28;123347;-67
2023/02/07 12:23:17;;;;;;;;;;;;;;;15.77;42.06;103209.50;4939759;28;106605;-68
2023/02/07 12:25:54;;;;;;;;;;;;;;;15.58;42.13;103208.75;4955208;28;120324;-66
2023/02/07 12:28:41;;;;;;;;;;;;;;;15.41;41.94;103212.16;4936421;28;98143;-66
2023/02/07 12:31:47;;;;;;;;;;;;;;;15.23;42.17;103204.06;4941293;28;127562;-67
2023/02/07 12:34:41;;;;;;;;;;;;;;;15.05;42.18;103210.41;4946783;28;97955;-67
2023/02/07 12:37:30;;;;;;;;;;;;;;;14.89;41.98;103211.88;4958007;28;98831;-68
2023/02/07 12:40:29;;;;;;;;;;;;;;;14.74;42.32;103206.03;4941663;28;98338;-67
2023/02/07 12:43:02;;;;;;;;;;;;;;;14.58;41.98;103201.22;4953350;28;107024;-66
2023/02/07 12:45:53;;;;;;;;;;;;;;;14.46;41.98;103201.13;4927796;28;98175;-68
2023/02/07 12:48:42;;;;;;;;;;;;;;;14.36;42.15;103195.41;4929070;28;120047;-68
2023/02/07 12:51:16;;;;;;;;;;;;;;;14.32;42.11;103199.66;4959051;28;98199;-66
2023/02/07 12:54:15;;;;;;;;;;;;;;;14.31;42.06;103192.56;4933675;28;99515;-66